Terminal Aerodrome Forecast
Issued by NWS Upton, NY

Home | Current Version | Previous Version | Text Only | Print | Product List | Glossary On
Versions: 1 2 3 4 5 6 7 8 9 10 11 12 13 14 15 16 17 18 19 20 21 22 23 24 25 26 27 28 29 30
000
FTUS41 KOKX 232300
TAFEWR
TAF
KEWR 232331Z 2400/2506 33021G34KT P6SM FEW050
     FM240200 32017G25KT P6SM SKC
     FM241400 32024G34KT P6SM SKC
     FM242200 32017G27KT P6SM SKC
     FM250200 34012KT P6SM SKC=

USA.gov is the U.S. government's official web portal to all federal, state and local government web resources and services.